Time;durP1;ratioP1;P1;durP2;ratioP2;P2;SDS_P1;SDS_P2;PMS_P1;PMS_P2;Temp;Humidity;BMP_temperature;BMP_pressure;BME280_temperature;BME280_humidity;BME280_pressure;Samples;Min_cycle;Max_cycle;Signal;HPM_P1;HPM_P2
2024/03/25 00:00:29;;;;;;;4.45;1.63;;;;;;;;;;5079270;28;20032;-73
2024/03/25 00:02:55;;;;;;;5.80;1.23;;;;;;;;;;5059415;28;20031;-73
2024/03/25 00:05:25;;;;;;;6.70;1.70;;;;;;;;;;5059290;28;20421;-72
2024/03/25 00:07:52;;;;;;;6.75;1.52;;;;;;;;;;5056680;28;20021;-73
2024/03/25 00:10:20;;;;;;;2.95;1.25;;;;;;;;;;5056187;28;20028;-73
2024/03/25 00:12:47;;;;;;;5.78;1.88;;;;;;;;;;5056496;28;20376;-73
2024/03/25 00:15:13;;;;;;;7.22;2.22;;;;;;;;;;5075182;28;20046;-73
2024/03/25 00:17:39;;;;;;;4.63;1.17;;;;;;;;;;5075675;28;20296;-73
2024/03/25 00:20:09;;;;;;;7.90;1.30;;;;;;;;;;5075640;28;20021;-73
2024/03/25 00:22:35;;;;;;;2.88;1.10;;;;;;;;;;5076855;28;20081;-73
2024/03/25 00:25:01;;;;;;;6.78;1.33;;;;;;;;;;5080391;28;20025;-74
2024/03/25 00:27:29;;;;;;;3.28;1.25;;;;;;;;;;5063083;28;20035;-73
2024/03/25 00:29:55;;;;;;;6.65;1.38;;;;;;;;;;5076851;28;20028;-74
2024/03/25 00:32:21;;;;;;;8.10;1.25;;;;;;;;;;5057175;28;20045;-74
2024/03/25 00:34:47;;;;;;;7.38;1.60;;;;;;;;;;5058226;28;20032;-73
2024/03/25 00:37:14;;;;;;;5.93;1.20;;;;;;;;;;5061065;28;20507;-73
2024/03/25 00:39:40;;;;;;;5.55;1.48;;;;;;;;;;5078908;28;20064;-72
2024/03/25 00:42:06;;;;;;;7.10;1.30;;;;;;;;;;5078974;28;20024;-73
2024/03/25 00:44:32;;;;;;;5.18;1.20;;;;;;;;;;5079069;28;20530;-74
2024/03/25 00:46:58;;;;;;;4.10;1.15;;;;;;;;;;5063903;28;20483;-73
2024/03/25 00:49:24;;;;;;;3.50;0.95;;;;;;;;;;5082515;28;20017;-74
2024/03/25 00:51:50;;;;;;;6.03;1.15;;;;;;;;;;5076753;28;20017;-73
2024/03/25 00:54:16;;;;;;;6.60;1.42;;;;;;;;;;5077931;28;20074;-74
2024/03/25 00:56:44;;;;;;;5.65;1.55;;;;;;;;;;5077590;28;20021;-74
2024/03/25 00:59:10;;;;;;;7.63;1.50;;;;;;;;;;5076687;28;20475;-73
2024/03/25 01:01:36;;;;;;;3.85;1.17;;;;;;;;;;5058466;28;20372;-73
2024/03/25 01:04:02;;;;;;;3.33;1.38;;;;;;;;;;5059248;28;20028;-74
2024/03/25 01:06:28;;;;;;;7.97;1.35;;;;;;;;;;5080021;28;20483;-73
2024/03/25 01:08:54;;;;;;;4.88;1.65;;;;;;;;;;5062944;28;20079;-73
2024/03/25 01:11:21;;;;;;;7.25;1.58;;;;;;;;;;5062636;28;20024;-73
2024/03/25 01:13:47;;;;;;;7.22;1.30;;;;;;;;;;5080862;28;20025;-74
2024/03/25 01:16:13;;;;;;;4.22;1.05;;;;;;;;;;5061171;28;20028;-73
2024/03/25 01:18:39;;;;;;;8.30;1.75;;;;;;;;;;5061456;28;20025;-73
2024/03/25 01:21:05;;;;;;;9.13;1.65;;;;;;;;;;5078047;28;20027;-74
2024/03/25 01:23:31;;;;;;;7.95;2.00;;;;;;;;;;5079627;28;20036;-74
2024/03/25 01:25:57;;;;;;;3.53;1.25;;;;;;;;;;5061844;28;20025;-73
2024/03/25 01:28:24;;;;;;;5.10;1.75;;;;;;;;;;5079476;28;20016;-73
2024/03/25 01:30:51;;;;;;;14.52;1.40;;;;;;;;;;5060569;28;20499;-73
2024/03/25 01:33:17;;;;;;;4.93;1.77;;;;;;;;;;5062032;28;20399;-74
2024/03/25 01:35:43;;;;;;;4.25;1.58;;;;;;;;;;5062926;28;20043;-74
2024/03/25 01:38:09;;;;;;;11.27;2.08;;;;;;;;;;5080491;28;20028;-75
2024/03/25 01:40:35;;;;;;;5.47;1.88;;;;;;;;;;5059161;28;20028;-72
2024/03/25 01:43:02;;;;;;;7.72;1.67;;;;;;;;;;5077873;28;20029;-73
2024/03/25 01:45:30;;;;;;;8.93;3.20;;;;;;;;;;5059953;28;20372;-73
2024/03/25 01:47:57;;;;;;;7.75;1.75;;;;;;;;;;5078374;28;20162;-73
2024/03/25 01:50:23;;;;;;;8.23;2.08;;;;;;;;;;5060130;28;20028;-73
2024/03/25 01:52:49;;;;;;;6.75;1.77;;;;;;;;;;5061167;28;20032;-74
2024/03/25 01:55:21;;;;;;;4.78;2.20;;;;;;;;;;5079802;28;20025;-73
2024/03/25 01:57:47;;;;;;;8.10;2.00;;;;;;;;;;5061863;28;20395;-74
2024/03/25 02:00:16;;;;;;;6.22;1.88;;;;;;;;;;5061877;28;20035;-74
2024/03/25 02:02:44;;;;;;;11.00;2.17;;;;;;;;;;5079609;28;20086;-73
2024/03/25 02:05:11;;;;;;;5.50;1.80;;;;;;;;;;5061439;28;20020;-73
2024/03/25 02:07:38;;;;;;;10.55;3.22;;;;;;;;;;5078663;28;20050;-73
2024/03/25 02:10:04;;;;;;;7.57;2.03;;;;;;;;;;5078855;28;20040;-73
2024/03/25 02:12:31;;;;;;;4.75;2.25;;;;;;;;;;5059684;28;20024;-74
2024/03/25 02:14:58;;;;;;;7.72;2.00;;;;;;;;;;5077932;28;20368;-73
2024/03/25 02:17:24;;;;;;;7.40;1.58;;;;;;;;;;5059248;28;20086;-73
2024/03/25 02:19:50;;;;;;;11.07;3.25;;;;;;;;;;5059212;28;20032;-74
2024/03/25 02:22:16;;;;;;;13.85;2.50;;;;;;;;;;5076617;28;20028;-74
2024/03/25 02:24:44;;;;;;;8.35;2.08;;;;;;;;;;5078697;28;20104;-74
2024/03/25 02:27:14;;;;;;;10.00;2.35;;;;;;;;;;5081251;28;20395;-75
2024/03/25 02:29:40;;;;;;;5.75;1.33;;;;;;;;;;5081245;28;20021;-74
2024/03/25 02:32:10;;;;;;;7.05;2.25;;;;;;;;;;5079442;28;20024;-73
2024/03/25 02:34:36;;;;;;;10.95;2.00;;;;;;;;;;5080173;28;20095;-73
2024/03/25 02:37:02;;;;;;;6.85;1.50;;;;;;;;;;5079253;28;20098;-74
2024/03/25 02:39:28;;;;;;;7.50;2.03;;;;;;;;;;5077435;28;20219;-73
2024/03/25 02:41:55;;;;;;;8.48;2.08;;;;;;;;;;5057308;28;20021;-72
2024/03/25 02:44:21;;;;;;;7.55;3.03;;;;;;;;;;5057779;28;20035;-74
2024/03/25 02:46:47;;;;;;;14.57;2.33;;;;;;;;;;5057865;28;20058;-74
2024/03/25 02:49:13;;;;;;;8.10;2.25;;;;;;;;;;5059560;28;20020;-74
2024/03/25 02:51:39;;;;;;;4.32;1.45;;;;;;;;;;5060698;28;20115;-72
2024/03/25 02:54:05;;;;;;;6.60;2.20;;;;;;;;;;5081940;28;20043;-73
2024/03/25 02:56:32;;;;;;;8.18;2.10;;;;;;;;;;5062811;28;20464;-73
2024/03/25 02:58:58;;;;;;;5.95;1.75;;;;;;;;;;5060925;28;20402;-74
2024/03/25 03:01:24;;;;;;;7.10;2.03;;;;;;;;;;5077878;28;20028;-72
2024/03/25 03:03:50;;;;;;;6.72;2.42;;;;;;;;;;5076519;28;20028;-74
2024/03/25 03:06:16;;;;;;;5.10;2.03;;;;;;;;;;5062631;28;20390;-73
2024/03/25 03:08:42;;;;;;;10.38;2.67;;;;;;;;;;5081297;28;20027;-73
2024/03/25 03:11:08;;;;;;;6.68;1.75;;;;;;;;;;5078290;28;20121;-73
2024/03/25 03:13:34;;;;;;;5.63;1.50;;;;;;;;;;5077307;28;20047;-73
2024/03/25 03:16:00;;;;;;;7.40;2.20;;;;;;;;;;5077493;28;20025;-75
2024/03/25 03:18:26;;;;;;;7.18;2.03;;;;;;;;;;5081142;28;20024;-73
2024/03/25 03:20:55;;;;;;;16.63;3.20;;;;;;;;;;5080631;28;20021;-75
2024/03/25 03:23:21;;;;;;;7.13;1.60;;;;;;;;;;5061602;28;20082;-73
2024/03/25 03:25:47;;;;;;;6.45;1.95;;;;;;;;;;5059464;28;20024;-73
2024/03/25 03:28:14;;;;;;;7.32;2.20;;;;;;;;;;5059216;28;20043;-74
2024/03/25 03:30:40;;;;;;;9.43;2.20;;;;;;;;;;5060113;28;20021;-74
2024/03/25 03:33:07;;;;;;;9.63;3.42;;;;;;;;;;5076703;28;20040;-73
2024/03/25 03:35:36;;;;;;;6.45;1.70;;;;;;;;;;5079746;28;20024;-73
2024/03/25 03:38:02;;;;;;;6.75;1.73;;;;;;;;;;5061928;28;20027;-73
2024/03/25 03:40:29;;;;;;;4.05;2.17;;;;;;;;;;5078062;28;20056;-73
2024/03/25 03:42:55;;;;;;;8.18;1.83;;;;;;;;;;5076607;28;20027;-74
2024/03/25 03:45:22;;;;;;;5.78;2.20;;;;;;;;;;5058094;28;20017;-74
2024/03/25 03:47:48;;;;;;;6.45;2.03;;;;;;;;;;5076826;28;20025;-73
2024/03/25 03:50:14;;;;;;;15.13;3.17;;;;;;;;;;5058935;28;20070;-73
2024/03/25 03:52:40;;;;;;;7.07;1.90;;;;;;;;;;5058963;28;20525;-74
2024/03/25 03:55:06;;;;;;;7.40;2.25;;;;;;;;;;5076873;28;20041;-73
2024/03/25 03:57:32;;;;;;;6.32;1.90;;;;;;;;;;5076339;28;20024;-73
2024/03/25 03:59:58;;;;;;;5.32;1.95;;;;;;;;;;5058334;28;20033;-74
2024/03/25 04:02:25;;;;;;;6.85;1.65;;;;;;;;;;5058834;28;20025;-74
2024/03/25 04:04:51;;;;;;;10.27;2.22;;;;;;;;;;5055722;28;20016;-74
2024/03/25 04:07:17;;;;;;;14.52;2.90;;;;;;;;;;5073478;28;20364;-73
2024/03/25 04:09:44;;;;;;;9.55;2.85;;;;;;;;;;5073879;28;20468;-73
2024/03/25 04:12:10;;;;;;;9.77;1.98;;;;;;;;;;5072684;28;20028;-72
2024/03/25 04:14:36;;;;;;;11.82;1.85;;;;;;;;;;5074100;28;20027;-73
2024/03/25 04:17:03;;;;;;;6.38;1.80;;;;;;;;;;5056275;28;20020;-73
2024/03/25 04:19:29;;;;;;;9.93;2.58;;;;;;;;;;5077069;28;20013;-73
2024/03/25 04:21:55;;;;;;;7.70;2.13;;;;;;;;;;5060537;28;20017;-73
2024/03/25 04:24:21;;;;;;;5.78;3.35;;;;;;;;;;5074331;28;20494;-73
2024/03/25 04:26:47;;;;;;;5.40;1.77;;;;;;;;;;5074950;28;20024;-74
2024/03/25 04:29:13;;;;;;;7.78;1.60;;;;;;;;;;5076984;28;20023;-72
2024/03/25 04:31:39;;;;;;;8.05;2.00;;;;;;;;;;5079856;28;20021;-74
2024/03/25 04:34:05;;;;;;;7.60;2.25;;;;;;;;;;5077866;28;20024;-73
2024/03/25 04:36:31;;;;;;;8.90;3.28;;;;;;;;;;5077460;28;20510;-73
2024/03/25 04:38:57;;;;;;;7.32;2.03;;;;;;;;;;5076856;28;20032;-74
2024/03/25 04:41:23;;;;;;;5.60;2.13;;;;;;;;;;5075540;28;20394;-74
2024/03/25 04:43:49;;;;;;;9.05;2.30;;;;;;;;;;5076557;28;20028;-73
2024/03/25 04:46:15;;;;;;;5.70;1.88;;;;;;;;;;5058677;28;20119;-72
2024/03/25 04:48:41;;;;;;;8.05;1.95;;;;;;;;;;5077055;28;20056;-73
2024/03/25 04:51:09;;;;;;;8.00;1.98;;;;;;;;;;5059990;28;20028;-73
2024/03/25 04:53:35;;;;;;;8.77;3.08;;;;;;;;;;5061201;28;20060;-73
2024/03/25 04:56:01;;;;;;;11.40;2.55;;;;;;;;;;5062350;28;20032;-73
2024/03/25 04:58:27;;;;;;;12.68;2.58;;;;;;;;;;5077931;28;20028;-73
2024/03/25 05:00:53;;;;;;;9.38;2.58;;;;;;;;;;5061195;28;20394;-74
2024/03/25 05:03:19;;;;;;;5.13;1.40;;;;;;;;;;5080011;28;20031;-74
2024/03/25 05:05:45;;;;;;;12.13;2.97;;;;;;;;;;5078872;28;20098;-74
2024/03/25 05:08:11;;;;;;;11.40;2.10;;;;;;;;;;5077630;28;20016;-74
2024/03/25 05:10:37;;;;;;;11.82;3.05;;;;;;;;;;5077192;28;20043;-73
2024/03/25 05:13:03;;;;;;;12.68;2.35;;;;;;;;;;5058715;28;20025;-73
2024/03/25 05:15:29;;;;;;;8.52;1.75;;;;;;;;;;5078925;28;20102;-73
2024/03/25 05:17:55;;;;;;;7.25;2.35;;;;;;;;;;5078034;28;20471;-74
2024/03/25 05:20:21;;;;;;;10.50;2.67;;;;;;;;;;5058608;28;20062;-74
2024/03/25 05:22:48;;;;;;;6.05;2.30;;;;;;;;;;5078537;28;20439;-74
2024/03/25 05:25:14;;;;;;;10.25;2.28;;;;;;;;;;5079003;28;20060;-73
2024/03/25 05:27:40;;;;;;;8.88;2.63;;;;;;;;;;5061152;28;20028;-73
2024/03/25 05:30:06;;;;;;;12.77;2.53;;;;;;;;;;5061279;28;20033;-73
2024/03/25 05:32:32;;;;;;;8.18;2.67;;;;;;;;;;5076526;28;20031;-71
2024/03/25 05:34:58;;;;;;;4.10;2.08;;;;;;;;;;5058136;28;20024;-73
2024/03/25 05:37:24;;;;;;;10.57;2.25;;;;;;;;;;5057696;28;20036;-74
2024/03/25 05:39:50;;;;;;;10.40;2.38;;;;;;;;;;5077025;28;20032;-74
2024/03/25 05:42:16;;;;;;;8.48;2.72;;;;;;;;;;5060529;28;20028;-72
2024/03/25 05:44:42;;;;;;;9.23;3.05;;;;;;;;;;5079128;28;20021;-73
2024/03/25 05:47:08;;;;;;;8.27;2.92;;;;;;;;;;5077368;28;20024;-74
2024/03/25 05:49:34;;;;;;;16.23;2.58;;;;;;;;;;5058557;28;20021;-73
2024/03/25 05:52:00;;;;;;;10.98;2.88;;;;;;;;;;5075037;28;20036;-73
2024/03/25 05:54:26;;;;;;;9.32;2.55;;;;;;;;;;5057495;28;20032;-73
2024/03/25 05:56:53;;;;;;;5.28;2.25;;;;;;;;;;5058907;28;20057;-73
2024/03/25 05:59:19;;;;;;;9.90;3.58;;;;;;;;;;5075757;28;20016;-72
2024/03/25 06:01:45;;;;;;;13.82;2.88;;;;;;;;;;5075655;28;20028;-73
2024/03/25 06:04:11;;;;;;;10.18;2.90;;;;;;;;;;5075565;28;20391;-73
2024/03/25 06:06:37;;;;;;;8.80;2.28;;;;;;;;;;5077012;28;20032;-73
2024/03/25 06:09:03;;;;;;;6.60;2.00;;;;;;;;;;5059390;28;20031;-73
2024/03/25 06:11:32;;;;;;;11.75;3.30;;;;;;;;;;5058650;28;20020;-74
2024/03/25 06:13:58;;;;;;;9.43;2.47;;;;;;;;;;5058972;28;20039;-74
2024/03/25 06:16:24;;;;;;;4.47;2.65;;;;;;;;;;5076524;28;20046;-74
2024/03/25 06:18:50;;;;;;;8.98;2.35;;;;;;;;;;5059297;28;20035;-75
2024/03/25 06:21:16;;;;;;;8.15;2.95;;;;;;;;;;5080058;28;20031;-75
2024/03/25 06:23:43;;;;;;;9.48;3.67;;;;;;;;;;5062695;28;20028;-75
2024/03/25 06:26:09;;;;;;;11.50;2.55;;;;;;;;;;5058159;28;20024;-73
2024/03/25 06:28:35;;;;;;;13.10;2.63;;;;;;;;;;5082934;28;20021;-73
2024/03/25 06:36:30;;;;;;;11.40;2.55;;;;;;;;;;5075171;28;20032;-75
2024/03/25 06:38:57;;;;;;;7.72;2.50;;;;;;;;;;5075632;28;20025;-73
2024/03/25 06:41:23;;;;;;;7.68;2.88;;;;;;;;;;5057344;28;20082;-74
2024/03/25 06:43:49;;;;;;;8.13;2.45;;;;;;;;;;5074418;28;20107;-74
2024/03/25 06:46:15;;;;;;;9.45;2.45;;;;;;;;;;5075488;28;20060;-74
2024/03/25 06:48:41;;;;;;;9.85;3.13;;;;;;;;;;5060798;28;20028;-74
2024/03/25 06:51:07;;;;;;;10.25;3.35;;;;;;;;;;5061677;28;20021;-75
2024/03/25 06:53:33;;;;;;;3.95;2.08;;;;;;;;;;5076313;28;20020;-75
2024/03/25 06:56:00;;;;;;;8.45;2.33;;;;;;;;;;5057685;28;20024;-73
2024/03/25 06:58:27;;;;;;;11.88;2.38;;;;;;;;;;5057604;28;20025;-74
2024/03/25 07:00:54;;;;;;;7.82;2.40;;;;;;;;;;5075230;28;20036;-74
2024/03/25 07:03:20;;;;;;;9.70;3.15;;;;;;;;;;5075322;28;20036;-74
2024/03/25 07:05:47;;;;;;;11.48;3.03;;;;;;;;;;5057153;28;20095;-75
2024/03/25 07:08:13;;;;;;;9.10;2.85;;;;;;;;;;5056849;28;20025;-74
2024/03/25 07:10:41;;;;;;;9.23;2.70;;;;;;;;;;5075419;28;20428;-73
2024/03/25 07:13:07;;;;;;;12.38;3.25;;;;;;;;;;5057254;28;20463;-74
2024/03/25 07:15:33;;;;;;;10.43;3.03;;;;;;;;;;5075877;28;20528;-74
2024/03/25 07:17:59;;;;;;;10.80;2.63;;;;;;;;;;5075503;28;20032;-74
2024/03/25 07:20:26;;;;;;;17.00;3.75;;;;;;;;;;5056239;28;20020;-75
2024/03/25 07:22:55;;;;;;;13.07;3.00;;;;;;;;;;5075618;28;20059;-75
2024/03/25 07:25:21;;;;;;;12.68;2.95;;;;;;;;;;5056648;28;20052;-75
2024/03/25 07:27:48;;;;;;;15.00;3.20;;;;;;;;;;5057011;28;20119;-73
2024/03/25 07:30:14;;;;;;;12.68;2.92;;;;;;;;;;5057353;28;20497;-74
2024/03/25 07:32:40;;;;;;;11.68;2.47;;;;;;;;;;5056086;28;20028;-73
2024/03/25 07:35:07;;;;;;;12.00;2.60;;;;;;;;;;5058208;28;20120;-74
2024/03/25 07:37:34;;;;;;;6.50;3.40;;;;;;;;;;5078449;28;20028;-74
2024/03/25 07:40:00;;;;;;;13.40;3.58;;;;;;;;;;5078686;28;20028;-75
2024/03/25 07:42:26;;;;;;;13.77;3.28;;;;;;;;;;5063028;28;20032;-74
2024/03/25 07:44:52;;;;;;;13.30;3.47;;;;;;;;;;5060718;28;20086;-75
2024/03/25 07:47:18;;;;;;;10.57;2.92;;;;;;;;;;5080414;28;20024;-74
2024/03/25 07:49:44;;;;;;;8.57;2.80;;;;;;;;;;5061394;28;20017;-74
2024/03/25 07:52:10;;;;;;;13.85;3.35;;;;;;;;;;5060149;28;20028;-75
2024/03/25 07:54:37;;;;;;;11.73;2.83;;;;;;;;;;5079903;28;20024;-76
2024/03/25 07:57:04;;;;;;;8.82;2.22;;;;;;;;;;5077070;28;20016;-75
2024/03/25 07:59:30;;;;;;;13.50;2.95;;;;;;;;;;5077651;28;20047;-74
2024/03/25 08:01:56;;;;;;;7.22;2.25;;;;;;;;;;5059685;28;20021;-73
2024/03/25 08:04:22;;;;;;;7.68;2.50;;;;;;;;;;5058590;28;20029;-75
2024/03/25 08:06:48;;;;;;;11.55;3.05;;;;;;;;;;5076053;28;20019;-75
2024/03/25 08:09:15;;;;;;;13.75;3.65;;;;;;;;;;5057167;28;20017;-75
2024/03/25 08:11:43;;;;;;;11.07;3.35;;;;;;;;;;5052081;28;20024;-74
2024/03/25 08:14:09;;;;;;;10.68;2.75;;;;;;;;;;5056744;28;20466;-74
2024/03/25 08:16:35;;;;;;;9.75;3.08;;;;;;;;;;5075831;28;20020;-75
2024/03/25 08:19:01;;;;;;;12.40;2.38;;;;;;;;;;5063355;28;20486;-74
2024/03/25 08:21:27;;;;;;;10.23;2.40;;;;;;;;;;5081430;28;20159;-74
2024/03/25 08:23:54;;;;;;;8.60;2.45;;;;;;;;;;5084213;28;20021;-74
2024/03/25 08:26:20;;;;;;;13.18;2.67;;;;;;;;;;5064157;28;20027;-76
2024/03/25 08:28:46;;;;;;;9.85;2.63;;;;;;;;;;5061525;28;20029;-76
2024/03/25 08:31:12;;;;;;;10.70;2.65;;;;;;;;;;5082446;28;20017;-75
2024/03/25 08:33:38;;;;;;;16.98;2.17;;;;;;;;;;5058081;28;20048;-75
2024/03/25 08:36:04;;;;;;;11.07;2.13;;;;;;;;;;5057503;28;20016;-75
2024/03/25 08:38:30;;;;;;;13.85;2.55;;;;;;;;;;5060333;28;20021;-74
2024/03/25 08:40:56;;;;;;;11.05;3.13;;;;;;;;;;5077748;28;20056;-75
2024/03/25 08:43:22;;;;;;;10.18;2.55;;;;;;;;;;5060479;28;20050;-75
2024/03/25 08:45:48;;;;;;;12.65;2.67;;;;;;;;;;5058493;28;20021;-75
2024/03/25 08:48:14;;;;;;;17.83;2.92;;;;;;;;;;5074750;28;20026;-74
2024/03/25 08:50:40;;;;;;;10.45;1.75;;;;;;;;;;5057506;28;20028;-76
2024/03/25 08:53:06;;;;;;;6.20;1.30;;;;;;;;;;5059876;28;20036;-74
2024/03/25 08:55:32;;;;;;;12.50;2.35;;;;;;;;;;5082045;28;20471;-75
2024/03/25 08:57:58;;;;;;;16.33;2.45;;;;;;;;;;5083810;28;20076;-76
2024/03/25 09:00:25;;;;;;;4.93;1.85;;;;;;;;;;5081933;28;20494;-75
2024/03/25 09:02:51;;;;;;;9.10;2.40;;;;;;;;;;5081282;28;20033;-76
2024/03/25 09:05:18;;;;;;;11.35;1.75;;;;;;;;;;5080042;28;20020;-75
2024/03/25 09:07:44;;;;;;;6.43;1.63;;;;;;;;;;5061116;28;20013;-75
2024/03/25 09:12:55;;;;;;;9.63;2.70;;;;;;;;;;5082237;28;20470;-76
2024/03/25 09:15:21;;;;;;;11.20;2.08;;;;;;;;;;5084446;28;20142;-76
2024/03/25 09:17:47;;;;;;;5.35;1.80;;;;;;;;;;5080706;28;20032;-75
2024/03/25 09:20:17;;;;;;;7.53;2.05;;;;;;;;;;5079876;28;20021;-74
2024/03/25 09:22:48;;;;;;;7.63;2.92;;;;;;;;;;5061698;28;20040;-75
2024/03/25 09:25:14;;;;;;;7.47;1.65;;;;;;;;;;5059301;28;20028;-76
2024/03/25 09:27:40;;;;;;;6.53;1.75;;;;;;;;;;5060962;28;20394;-74
2024/03/25 09:30:08;;;;;;;4.45;1.63;;;;;;;;;;5076197;28;20017;-76
2024/03/25 09:32:35;;;;;;;8.38;2.08;;;;;;;;;;5082081;28;20025;-74
2024/03/25 09:35:01;;;;;;;6.85;1.70;;;;;;;;;;5081804;28;20387;-74
2024/03/25 09:37:27;;;;;;;8.88;2.13;;;;;;;;;;5065720;28;20455;-75
2024/03/25 09:39:53;;;;;;;7.97;2.15;;;;;;;;;;5083525;28;20095;-74
2024/03/25 09:42:26;;;;;;;6.28;2.00;;;;;;;;;;5084234;28;20032;-74
2024/03/25 09:44:56;;;;;;;9.88;1.88;;;;;;;;;;5066790;28;20021;-74
2024/03/25 09:47:22;;;;;;;4.90;1.30;;;;;;;;;;5065786;28;20033;-74
2024/03/25 09:49:48;;;;;;;10.48;1.88;;;;;;;;;;5067447;28;20016;-74
2024/03/25 09:52:18;;;;;;;4.68;1.17;;;;;;;;;;5065309;28;20025;-75
2024/03/25 09:54:44;;;;;;;4.70;1.55;;;;;;;;;;5086260;28;20044;-75
2024/03/25 09:57:10;;;;;;;4.93;1.65;;;;;;;;;;5064431;28;20028;-75
2024/03/25 09:59:37;;;;;;;6.45;1.88;;;;;;;;;;5081667;28;20021;-74
2024/03/25 10:02:03;;;;;;;5.15;1.27;;;;;;;;;;5060313;28;20100;-74
2024/03/25 10:04:29;;;;;;;6.38;1.45;;;;;;;;;;5059855;28;20036;-73
2024/03/25 10:06:56;;;;;;;8.48;2.00;;;;;;;;;;5074300;28;20096;-74
2024/03/25 10:09:22;;;;;;;7.80;1.73;;;;;;;;;;5073855;28;20081;-74
2024/03/25 10:11:51;;;;;;;6.63;1.30;;;;;;;;;;5068909;28;20023;-72
2024/03/25 10:14:18;;;;;;;6.95;1.58;;;;;;;;;;5077030;28;20078;-73
2024/03/25 10:16:44;;;;;;;7.15;1.50;;;;;;;;;;5061364;28;20403;-73
2024/03/25 10:19:10;;;;;;;8.38;1.58;;;;;;;;;;5059780;28;20359;-75
2024/03/25 10:21:37;;;;;;;5.97;1.65;;;;;;;;;;5040455;28;20028;-75
2024/03/25 10:24:06;;;;;;;6.57;1.65;;;;;;;;;;5073566;28;20052;-75
2024/03/25 10:26:35;;;;;;;7.10;1.90;;;;;;;;;;5055219;28;20024;-74
2024/03/25 10:29:06;;;;;;;9.75;1.80;;;;;;;;;;5073055;28;20455;-75
2024/03/25 10:31:32;;;;;;;8.60;1.70;;;;;;;;;;5072628;28;20052;-75
2024/03/25 10:33:58;;;;;;;14.25;2.53;;;;;;;;;;5055986;28;20102;-75
2024/03/25 10:36:25;;;;;;;6.90;1.75;;;;;;;;;;5075481;28;20044;-75
2024/03/25 10:39:00;;;;;;;5.03;1.92;;;;;;;;;;5076053;28;20033;-75
2024/03/25 10:41:28;;;;;;;5.60;1.40;;;;;;;;;;5077513;28;20028;-75
2024/03/25 10:43:54;;;;;;;6.07;1.42;;;;;;;;;;5082534;28;20020;-75
2024/03/25 10:46:21;;;;;;;8.32;1.92;;;;;;;;;;5082897;28;20029;-74
2024/03/25 10:49:08;;;;;;;5.53;1.58;;;;;;;;;;5076196;28;20021;-75
2024/03/25 10:51:35;;;;;;;7.88;2.08;;;;;;;;;;5073843;28;20021;-74
2024/03/25 10:54:02;;;;;;;5.57;2.00;;;;;;;;;;5077607;28;20032;-74
2024/03/25 10:56:29;;;;;;;8.40;2.20;;;;;;;;;;5084813;28;20029;-75
2024/03/25 10:58:56;;;;;;;9.38;1.65;;;;;;;;;;5064892;28;20055;-75
2024/03/25 11:01:22;;;;;;;7.32;2.00;;;;;;;;;;5073243;28;20395;-75
2024/03/25 11:03:49;;;;;;;3.85;1.50;;;;;;;;;;5057152;28;20021;-76
2024/03/25 11:06:16;;;;;;;5.95;1.75;;;;;;;;;;5054888;28;20017;-75
2024/03/25 11:08:46;;;;;;;7.43;1.90;;;;;;;;;;5054788;28;20021;-75
2024/03/25 11:11:13;;;;;;;10.05;1.80;;;;;;;;;;5072748;28;20031;-75
2024/03/25 11:13:39;;;;;;;7.38;2.20;;;;;;;;;;5073721;28;20097;-76
2024/03/25 11:16:12;;;;;;;6.47;1.70;;;;;;;;;;5055448;28;20079;-74
2024/03/25 11:18:38;;;;;;;7.07;1.88;;;;;;;;;;5053619;28;20020;-75
2024/03/25 11:21:05;;;;;;;9.82;2.28;;;;;;;;;;5054162;28;20129;-77
2024/03/25 11:23:39;;;;;;;7.22;1.55;;;;;;;;;;5054239;28;20151;-74
2024/03/25 11:26:05;;;;;;;6.38;1.17;;;;;;;;;;5074424;28;20016;-76
2024/03/25 11:28:31;;;;;;;8.45;2.15;;;;;;;;;;5055381;28;20501;-76
2024/03/25 11:30:57;;;;;;;7.50;1.83;;;;;;;;;;5072650;28;20510;-75
2024/03/25 11:33:24;;;;;;;13.25;2.30;;;;;;;;;;5057913;28;20035;-77
2024/03/25 11:35:50;;;;;;;5.82;2.03;;;;;;;;;;5077794;28;20058;-74
2024/03/25 11:38:16;;;;;;;7.40;2.20;;;;;;;;;;5074953;28;20067;-74
2024/03/25 11:40:45;;;;;;;6.88;1.65;;;;;;;;;;5074251;28;20088;-75
2024/03/25 11:43:19;;;;;;;5.78;1.73;;;;;;;;;;5055730;28;20131;-74
2024/03/25 11:45:47;;;;;;;6.45;1.73;;;;;;;;;;5077547;28;20495;-74
2024/03/25 11:48:14;;;;;;;3.83;0.98;;;;;;;;;;5075526;28;20024;-74
2024/03/25 11:50:40;;;;;;;3.45;1.55;;;;;;;;;;5072908;28;20047;-74
2024/03/25 11:53:06;;;;;;;7.38;2.25;;;;;;;;;;5070335;28;20106;-75
2024/03/25 11:55:33;;;;;;;6.88;1.92;;;;;;;;;;5071254;28;20120;-76
2024/03/25 11:57:59;;;;;;;6.00;1.42;;;;;;;;;;5071108;28;20056;-75
2024/03/25 12:00:25;;;;;;;7.32;1.55;;;;;;;;;;5055094;28;20028;-75
2024/03/25 12:02:52;;;;;;;8.93;2.25;;;;;;;;;;5053080;28;20067;-74
2024/03/25 12:05:18;;;;;;;4.13;1.45;;;;;;;;;;5052872;28;20042;-74
2024/03/25 12:07:44;;;;;;;5.53;1.48;;;;;;;;;;5071601;28;20028;-72
2024/03/25 12:12:56;;;;;;;7.20;1.60;;;;;;;;;;5070620;28;20075;-73
2024/03/25 12:15:22;;;;;;;7.82;2.08;;;;;;;;;;5071126;28;20028;-73
2024/03/25 12:17:48;;;;;;;6.15;1.50;;;;;;;;;;5054588;28;20020;-73
2024/03/25 12:20:14;;;;;;;8.32;1.63;;;;;;;;;;5072983;28;20090;-73
2024/03/25 12:22:41;;;;;;;8.30;1.80;;;;;;;;;;5076570;28;20031;-73
2024/03/25 12:25:08;;;;;;;6.45;1.35;;;;;;;;;;5074483;28;20028;-75
2024/03/25 12:27:34;;;;;;;8.05;1.42;;;;;;;;;;5073708;28;20316;-74
2024/03/25 12:30:01;;;;;;;8.38;1.23;;;;;;;;;;5073774;28;20016;-75
2024/03/25 12:32:36;;;;;;;5.93;1.33;;;;;;;;;;5075020;28;20017;-74
2024/03/25 12:35:03;;;;;;;7.40;1.95;;;;;;;;;;5075252;28;20447;-74
2024/03/25 12:37:29;;;;;;;5.05;1.33;;;;;;;;;;5056595;28;20403;-73
2024/03/25 12:39:58;;;;;;;3.78;1.58;;;;;;;;;;5076374;28;20021;-75
2024/03/25 12:42:25;;;;;;;6.07;1.60;;;;;;;;;;5075422;28;20024;-74
2024/03/25 12:44:51;;;;;;;5.70;1.73;;;;;;;;;;5076185;28;20114;-74
2024/03/25 12:47:17;;;;;;;5.63;1.55;;;;;;;;;;5058314;28;20032;-75
2024/03/25 12:49:43;;;;;;;7.45;2.00;;;;;;;;;;5076978;28;20017;-76
2024/03/25 12:52:10;;;;;;;3.88;1.17;;;;;;;;;;5058463;28;20047;-75
2024/03/25 12:54:36;;;;;;;3.05;1.10;;;;;;;;;;5076454;28;20036;-74
2024/03/25 12:57:02;;;;;;;4.35;1.42;;;;;;;;;;5075482;28;20426;-75
2024/03/25 12:59:28;;;;;;;5.38;1.55;;;;;;;;;;5056925;28;20028;-74
2024/03/25 13:01:54;;;;;;;5.85;1.77;;;;;;;;;;5074191;28;20033;-75
2024/03/25 13:04:20;;;;;;;4.00;1.48;;;;;;;;;;5075010;28;20426;-74
2024/03/25 13:06:46;;;;;;;6.93;2.03;;;;;;;;;;5056825;28;20021;-75
2024/03/25 13:09:12;;;;;;;4.47;1.13;;;;;;;;;;5057369;28;20519;-75
2024/03/25 13:11:38;;;;;;;7.32;1.55;;;;;;;;;;5056446;28;20494;-75
2024/03/25 13:14:07;;;;;;;8.10;1.10;;;;;;;;;;5059538;28;20478;-77
2024/03/25 13:16:33;;;;;;;8.68;1.40;;;;;;;;;;5058579;28;20052;-76
2024/03/25 13:18:59;;;;;;;3.75;1.25;;;;;;;;;;5075329;28;20131;-75
2024/03/25 13:21:25;;;;;;;3.50;1.10;;;;;;;;;;5057370;28;20025;-75
2024/03/25 13:23:52;;;;;;;6.88;1.38;;;;;;;;;;5057705;28;20024;-75
2024/03/25 13:26:18;;;;;;;3.60;1.00;;;;;;;;;;5075360;28;20024;-77
2024/03/25 13:28:44;;;;;;;5.25;1.33;;;;;;;;;;5057116;28;20020;-74
2024/03/25 13:31:11;;;;;;;5.20;1.10;;;;;;;;;;5057048;28;20164;-76
2024/03/25 13:33:38;;;;;;;3.70;0.80;;;;;;;;;;5057509;28;20020;-76
2024/03/25 13:36:05;;;;;;;6.50;1.20;;;;;;;;;;5059167;28;20028;-77
2024/03/25 13:38:32;;;;;;;6.65;1.63;;;;;;;;;;5077640;28;20025;-76
2024/03/25 13:40:58;;;;;;;3.90;1.00;;;;;;;;;;5075229;28;20035;-75
2024/03/25 13:43:24;;;;;;;6.00;1.08;;;;;;;;;;5076063;28;20184;-76
2024/03/25 13:45:50;;;;;;;7.72;1.63;;;;;;;;;;5079839;28;20047;-76
2024/03/25 13:48:16;;;;;;;7.30;2.03;;;;;;;;;;5081587;28;20126;-76
2024/03/25 13:50:42;;;;;;;6.55;1.42;;;;;;;;;;5059419;28;20036;-77
2024/03/25 13:53:09;;;;;;;5.88;1.15;;;;;;;;;;5056072;28;20490;-76
2024/03/25 13:55:35;;;;;;;4.65;1.00;;;;;;;;;;5073665;28;20036;-72
2024/03/25 13:58:01;;;;;;;4.82;1.50;;;;;;;;;;5055871;28;20394;-74
2024/03/25 14:00:28;;;;;;;6.05;1.85;;;;;;;;;;5055019;28;20067;-74
2024/03/25 14:02:56;;;;;;;9.75;2.15;;;;;;;;;;5072983;28;20031;-75
2024/03/25 14:05:23;;;;;;;2.58;0.98;;;;;;;;;;5055904;28;20021;-76
2024/03/25 14:07:49;;;;;;;3.80;1.30;;;;;;;;;;5074435;28;20020;-77
2024/03/25 14:10:15;;;;;;;4.72;1.60;;;;;;;;;;5056037;28;20384;-76
2024/03/25 14:12:41;;;;;;;6.43;1.67;;;;;;;;;;5073856;28;20044;-74
2024/03/25 14:15:08;;;;;;;3.53;0.80;;;;;;;;;;5057691;28;20028;-74
2024/03/25 14:17:34;;;;;;;7.43;1.30;;;;;;;;;;5074640;28;20032;-75
2024/03/25 14:20:00;;;;;;;4.57;0.85;;;;;;;;;;5057099;28;20134;-77
2024/03/25 14:22:26;;;;;;;4.95;1.40;;;;;;;;;;5055884;28;20076;-75
2024/03/25 14:24:57;;;;;;;3.55;1.17;;;;;;;;;;5056765;28;20070;-74
2024/03/25 14:27:23;;;;;;;10.48;2.30;;;;;;;;;;5075222;28;20027;-76
2024/03/25 14:29:49;;;;;;;8.45;1.60;;;;;;;;;;5059463;28;20033;-77
2024/03/25 14:32:15;;;;;;;3.45;1.02;;;;;;;;;;5060583;28;20031;-76
2024/03/25 14:34:41;;;;;;;7.03;1.40;;;;;;;;;;5060083;28;20055;-75
2024/03/25 14:37:07;;;;;;;6.15;1.95;;;;;;;;;;5066502;28;20024;-76
2024/03/25 14:39:33;;;;;;;6.75;1.50;;;;;;;;;;5081272;28;20040;-76
2024/03/25 14:41:59;;;;;;;4.97;1.40;;;;;;;;;;5075293;28;20044;-76
2024/03/25 14:44:25;;;;;;;9.38;1.88;;;;;;;;;;5074234;28;20028;-75
2024/03/25 14:46:51;;;;;;;17.25;2.60;;;;;;;;;;5055790;28;20029;-76